TAF KFSM
KFSM 081738Z 0818/0918 11006KT P6SM SCT250 FM090400 09010KT P6SM BKN250 WS020/19045KT FM091400 19012KT P6SM SCT025 SCT250=
METAR KFSM
WC KFSM
WS KFSM
WV KFSM